Time;durP1;ratioP1;P1;durP2;ratioP2;P2;SDS_P1;SDS_P2;PMS_P1;PMS_P2;Temp;Humidity;BMP_temperature;BMP_pressure;BME280_temperature;BME280_humidity;BME280_pressure;Samples;Min_cycle;Max_cycle;Signal;HPM_P1;HPM_P2
2023/09/13 00:01:36;;;;;;;4.82;4.32;;;;;;;;;;5015813;28;20400;-80
2023/09/13 00:04:02;;;;;;;4.72;4.13;;;;;;;;;;5019153;28;20385;-80
2023/09/13 00:06:28;;;;;;;6.23;4.17;;;;;;;;;;5016978;28;20389;-81
2023/09/13 00:08:54;;;;;;;4.22;3.83;;;;;;;;;;5016056;28;20393;-81
2023/09/13 00:11:20;;;;;;;4.53;4.13;;;;;;;;;;5014864;28;20468;-80
2023/09/13 00:13:46;;;;;;;4.50;4.10;;;;;;;;;;5016679;28;20400;-81
2023/09/13 00:16:12;;;;;;;5.32;4.60;;;;;;;;;;5016738;28;20445;-80
2023/09/13 00:18:38;;;;;;;5.13;4.65;;;;;;;;;;5014898;28;20831;-80
2023/09/13 00:21:04;;;;;;;5.28;4.70;;;;;;;;;;5015336;28;20412;-80
2023/09/13 00:23:30;;;;;;;5.88;5.38;;;;;;;;;;5014897;28;20889;-80
2023/09/13 00:25:56;;;;;;;5.50;4.53;;;;;;;;;;5016366;28;20424;-80
2023/09/13 00:28:22;;;;;;;5.65;5.18;;;;;;;;;;5016215;28;20384;-80
2023/09/13 00:30:48;;;;;;;6.83;5.43;;;;;;;;;;5015400;28;20937;-80
2023/09/13 00:33:14;;;;;;;5.57;5.07;;;;;;;;;;5014482;28;20392;-81
2023/09/13 00:35:40;;;;;;;5.40;5.00;;;;;;;;;;5016329;28;20392;-81
2023/09/13 00:38:07;;;;;;;5.45;4.95;;;;;;;;;;5016364;28;20401;-80
2023/09/13 00:40:33;;;;;;;5.55;5.07;;;;;;;;;;5016239;28;20412;-80
2023/09/13 00:42:59;;;;;;;5.57;5.07;;;;;;;;;;5016190;28;20439;-80
2023/09/13 00:45:25;;;;;;;5.32;4.82;;;;;;;;;;5015917;28;20471;-80
2023/09/13 00:47:51;;;;;;;4.97;4.57;;;;;;;;;;5015570;28;20392;-80
2023/09/13 00:50:18;;;;;;;5.30;4.90;;;;;;;;;;5015948;28;20380;-80
2023/09/13 00:52:45;;;;;;;4.88;4.47;;;;;;;;;;5016504;28;20400;-81
2023/09/13 00:55:11;;;;;;;5.03;4.60;;;;;;;;;;5015937;28;20388;-80
2023/09/13 00:57:37;;;;;;;5.63;4.80;;;;;;;;;;5015489;28;20432;-80
2023/09/13 01:00:11;;;;;;;5.13;4.72;;;;;;;;;;5015118;28;20758;-80
2023/09/13 01:02:38;;;;;;;5.10;4.70;;;;;;;;;;5027054;28;20385;-82
2023/09/13 01:05:06;;;;;;;5.45;4.95;;;;;;;;;;5015406;28;20377;-80
2023/09/13 01:07:32;;;;;;;6.07;4.85;;;;;;;;;;5015847;28;20384;-80
2023/09/13 01:09:59;;;;;;;5.25;4.78;;;;;;;;;;5015203;28;20389;-80
2023/09/13 01:12:25;;;;;;;5.68;5.22;;;;;;;;;;5015929;28;20396;-80
2023/09/13 01:14:51;;;;;;;6.50;5.80;;;;;;;;;;5023672;28;20381;-80
2023/09/13 01:17:20;;;;;;;6.57;5.20;;;;;;;;;;5015237;28;20388;-80
2023/09/13 01:19:55;;;;;;;5.30;4.80;;;;;;;;;;5015501;28;20404;-80
2023/09/13 01:22:21;;;;;;;4.65;4.25;;;;;;;;;;5014514;28;20400;-80
2023/09/13 01:24:59;;;;;;;5.00;4.60;;;;;;;;;;5015697;28;20384;-80
2023/09/13 01:28:07;;;;;;;5.47;4.95;;;;;;;;;;5015289;28;20890;-81
2023/09/13 01:30:34;;;;;;;5.05;4.65;;;;;;;;;;5012891;28;20397;-80
2023/09/13 01:33:00;;;;;;;5.38;4.75;;;;;;;;;;5015371;28;20432;-80
2023/09/13 01:35:26;;;;;;;4.90;4.50;;;;;;;;;;4996144;28;20401;-80
2023/09/13 01:37:52;;;;;;;4.33;3.93;;;;;;;;;;4996560;28;20397;-80
2023/09/13 01:40:19;;;;;;;4.90;4.50;;;;;;;;;;4996907;28;20421;-80
2023/09/13 01:42:47;;;;;;;4.50;4.15;;;;;;;;;;5012823;28;20412;-81
2023/09/13 01:45:14;;;;;;;4.47;4.18;;;;;;;;;;4995894;28;20396;-80
2023/09/13 01:47:42;;;;;;;4.93;4.50;;;;;;;;;;5012757;28;20385;-81
2023/09/13 01:50:09;;;;;;;4.53;4.13;;;;;;;;;;4996292;28;20396;-81
2023/09/13 01:52:36;;;;;;;4.78;4.38;;;;;;;;;;5013157;28;20447;-82
2023/09/13 01:55:05;;;;;;;4.70;4.30;;;;;;;;;;5012138;28;20930;-80
2023/09/13 01:57:31;;;;;;;4.28;3.97;;;;;;;;;;5012533;28;20771;-80
2023/09/13 01:59:57;;;;;;;4.47;4.17;;;;;;;;;;5012448;28;20428;-80
2023/09/13 02:02:23;;;;;;;4.57;4.10;;;;;;;;;;5014724;28;20480;-80
2023/09/13 02:04:49;;;;;;;4.53;4.13;;;;;;;;;;5024457;28;20906;-80
2023/09/13 02:07:16;;;;;;;4.63;4.22;;;;;;;;;;5031307;28;20397;-80
2023/09/13 02:09:43;;;;;;;4.80;4.32;;;;;;;;;;5013229;28;20404;-80
2023/09/13 02:12:12;;;;;;;5.10;4.60;;;;;;;;;;5014812;28;20381;-80
2023/09/13 02:14:38;;;;;;;5.40;4.85;;;;;;;;;;5015144;28;20376;-80
2023/09/13 02:17:04;;;;;;;4.65;4.35;;;;;;;;;;5014215;28;20392;-80
2023/09/13 02:19:30;;;;;;;4.63;4.22;;;;;;;;;;5014822;28;20416;-80
2023/09/13 02:21:56;;;;;;;4.30;4.00;;;;;;;;;;5013676;28;20760;-80
2023/09/13 02:24:22;;;;;;;4.72;4.28;;;;;;;;;;5011704;28;20404;-80
2023/09/13 02:26:48;;;;;;;4.57;4.10;;;;;;;;;;5012316;28;20485;-80
2023/09/13 02:29:14;;;;;;;4.73;4.37;;;;;;;;;;5028914;28;20429;-80
2023/09/13 02:31:40;;;;;;;4.47;4.17;;;;;;;;;;5031975;28;20397;-79
2023/09/13 02:34:06;;;;;;;4.97;4.47;;;;;;;;;;5013953;28;20780;-80
2023/09/13 02:36:32;;;;;;;4.47;4.10;;;;;;;;;;5028936;28;20763;-80
2023/09/13 02:38:59;;;;;;;4.82;4.50;;;;;;;;;;5014611;28;20393;-80
2023/09/13 02:41:25;;;;;;;4.50;4.10;;;;;;;;;;5014395;28;20396;-80
2023/09/13 02:43:51;;;;;;;4.47;4.18;;;;;;;;;;5012887;28;20984;-80
2023/09/13 02:46:17;;;;;;;4.50;4.10;;;;;;;;;;5012743;28;20389;-79
2023/09/13 02:48:43;;;;;;;4.60;4.20;;;;;;;;;;5016465;28;20507;-80
2023/09/13 02:51:15;;;;;;;5.10;4.22;;;;;;;;;;5016258;28;20389;-80
2023/09/13 02:53:41;;;;;;;4.43;4.13;;;;;;;;;;5017754;28;20388;-80
2023/09/13 02:56:08;;;;;;;7.50;4.30;;;;;;;;;;5016244;28;20388;-80
2023/09/13 02:58:34;;;;;;;4.75;4.32;;;;;;;;;;5018301;28;20384;-80
2023/09/13 03:01:03;;;;;;;4.53;4.22;;;;;;;;;;5017922;28;20430;-80
2023/09/13 03:03:30;;;;;;;4.68;4.38;;;;;;;;;;5018761;28;20910;-80
2023/09/13 03:06:05;;;;;;;5.63;5.00;;;;;;;;;;5019417;28;20862;-80
2023/09/13 03:08:31;;;;;;;4.75;4.35;;;;;;;;;;5017385;28;20970;-80
2023/09/13 03:10:57;;;;;;;4.43;4.03;;;;;;;;;;5016208;28;20409;-80
2023/09/13 03:13:23;;;;;;;4.82;4.32;;;;;;;;;;5017079;28;20428;-80
2023/09/13 03:15:49;;;;;;;4.63;4.22;;;;;;;;;;5015225;28;20472;-80
2023/09/13 03:18:15;;;;;;;4.22;3.83;;;;;;;;;;5015994;28;20464;-80
2023/09/13 03:20:41;;;;;;;4.25;3.95;;;;;;;;;;5017490;28;20423;-80
2023/09/13 03:23:07;;;;;;;4.32;4.03;;;;;;;;;;5015818;28;20393;-80
2023/09/13 03:25:33;;;;;;;4.22;3.92;;;;;;;;;;5016880;28;20447;-80
2023/09/13 03:27:59;;;;;;;4.20;3.90;;;;;;;;;;5015641;28;20746;-80
2023/09/13 03:30:25;;;;;;;4.25;3.88;;;;;;;;;;5017213;28;20380;-80
2023/09/13 03:32:51;;;;;;;4.20;3.90;;;;;;;;;;5015550;28;20408;-80
2023/09/13 03:35:17;;;;;;;4.68;4.30;;;;;;;;;;5032335;28;20401;-80
2023/09/13 03:37:43;;;;;;;4.38;4.07;;;;;;;;;;5018719;28;20412;-80
2023/09/13 03:40:09;;;;;;;4.80;4.45;;;;;;;;;;5017703;28;20886;-81
2023/09/13 03:42:35;;;;;;;4.87;4.20;;;;;;;;;;5016960;28;20400;-80
2023/09/13 03:45:02;;;;;;;4.40;4.10;;;;;;;;;;5016901;28;20854;-80
2023/09/13 03:47:28;;;;;;;4.40;3.90;;;;;;;;;;5017568;28;20417;-80
2023/09/13 03:49:54;;;;;;;4.57;4.20;;;;;;;;;;5017223;28;20423;-80
2023/09/13 03:52:20;;;;;;;4.80;4.30;;;;;;;;;;5016113;28;20393;-80
2023/09/13 03:54:46;;;;;;;4.65;4.25;;;;;;;;;;5016402;28;20401;-79
2023/09/13 03:57:12;;;;;;;4.43;4.13;;;;;;;;;;5022127;28;20442;-80
2023/09/13 03:59:38;;;;;;;4.45;4.05;;;;;;;;;;5023906;28;20451;-80
2023/09/13 04:02:04;;;;;;;4.45;4.05;;;;;;;;;;5017089;28;20435;-80
2023/09/13 04:04:30;;;;;;;4.80;4.30;;;;;;;;;;5016535;28;20400;-79
2023/09/13 04:06:56;;;;;;;4.43;4.03;;;;;;;;;;5017008;28;20455;-80
2023/09/13 04:09:22;;;;;;;4.57;4.18;;;;;;;;;;5015110;28;20389;-80
2023/09/13 04:11:48;;;;;;;3.90;3.60;;;;;;;;;;5016482;28;20881;-79
2023/09/13 04:14:14;;;;;;;4.45;4.10;;;;;;;;;;5015696;28;20425;-80
2023/09/13 04:16:40;;;;;;;4.68;4.13;;;;;;;;;;5016403;28;20393;-80
2023/09/13 04:19:06;;;;;;;4.55;4.15;;;;;;;;;;5013168;28;20389;-79
2023/09/13 04:21:32;;;;;;;4.90;4.50;;;;;;;;;;5013214;28;20946;-79
2023/09/13 04:23:58;;;;;;;5.05;4.53;;;;;;;;;;5014777;28;20420;-79
2023/09/13 04:26:24;;;;;;;4.78;4.30;;;;;;;;;;5014911;28;20381;-79
2023/09/13 04:28:50;;;;;;;5.33;4.77;;;;;;;;;;5014969;28;20399;-79
2023/09/13 04:31:16;;;;;;;4.45;4.15;;;;;;;;;;5030377;28;20727;-80
2023/09/13 04:33:45;;;;;;;4.40;4.07;;;;;;;;;;5016029;28;20403;-79
2023/09/13 04:36:11;;;;;;;5.10;4.60;;;;;;;;;;5015616;28;20389;-80
2023/09/13 04:38:36;;;;;;;4.63;4.30;;;;;;;;;;5016038;28;20404;-80
2023/09/13 04:41:05;;;;;;;5.05;4.65;;;;;;;;;;5015822;28;20515;-80
2023/09/13 04:43:31;;;;;;;4.00;3.70;;;;;;;;;;5015629;28;20734;-79
2023/09/13 04:45:57;;;;;;;4.70;4.30;;;;;;;;;;5016818;28;20397;-80
2023/09/13 04:48:23;;;;;;;4.65;4.28;;;;;;;;;;5015826;28;20389;-79
2023/09/13 04:50:49;;;;;;;4.32;4.03;;;;;;;;;;5016297;28;20400;-80
2023/09/13 04:53:15;;;;;;;4.97;4.40;;;;;;;;;;5016232;28;20404;-80
2023/09/13 04:55:44;;;;;;;5.00;4.50;;;;;;;;;;5016486;28;20392;-79
2023/09/13 04:58:10;;;;;;;4.72;4.32;;;;;;;;;;5019753;28;20703;-79
2023/09/13 05:00:36;;;;;;;4.20;3.90;;;;;;;;;;5026918;28;20448;-80
2023/09/13 05:03:02;;;;;;;4.47;4.18;;;;;;;;;;5015854;28;20381;-79
2023/09/13 05:05:28;;;;;;;4.70;4.30;;;;;;;;;;5015527;28;20447;-79
2023/09/13 05:07:54;;;;;;;4.53;4.13;;;;;;;;;;5015822;28;20538;-79
2023/09/13 05:10:20;;;;;;;3.90;3.60;;;;;;;;;;5014639;28;20412;-79
2023/09/13 05:12:50;;;;;;;4.25;3.92;;;;;;;;;;5013246;28;20397;-80
2023/09/13 05:15:16;;;;;;;4.78;4.25;;;;;;;;;;5015376;28;20392;-79
2023/09/13 05:17:42;;;;;;;4.40;4.00;;;;;;;;;;5015241;28;20769;-79
2023/09/13 05:20:08;;;;;;;4.63;4.22;;;;;;;;;;5014550;28;20543;-80
2023/09/13 05:22:34;;;;;;;4.10;3.70;;;;;;;;;;5015600;28;20412;-80
2023/09/13 05:25:00;;;;;;;4.30;3.80;;;;;;;;;;5016074;28;20403;-79
2023/09/13 05:27:26;;;;;;;4.53;4.10;;;;;;;;;;5015021;28;20384;-80
2023/09/13 05:29:52;;;;;;;4.82;4.30;;;;;;;;;;5015390;28;20420;-80
2023/09/13 05:32:19;;;;;;;3.90;3.60;;;;;;;;;;5022698;28;20392;-80
2023/09/13 05:34:45;;;;;;;4.88;3.78;;;;;;;;;;5030101;28;20396;-79
2023/09/13 05:37:11;;;;;;;3.90;3.60;;;;;;;;;;5015743;28;20389;-79
2023/09/13 05:39:38;;;;;;;4.63;3.60;;;;;;;;;;5015659;28;20808;-79
2023/09/13 05:42:04;;;;;;;4.20;3.58;;;;;;;;;;5015724;28;20434;-80
2023/09/13 05:44:31;;;;;;;4.05;3.75;;;;;;;;;;5013486;28;20398;-79
2023/09/13 05:46:57;;;;;;;5.03;3.97;;;;;;;;;;5015045;28;20388;-80
2023/09/13 05:49:23;;;;;;;6.30;4.50;;;;;;;;;;5014108;28;20377;-80
2023/09/13 05:51:49;;;;;;;4.15;3.80;;;;;;;;;;5015283;28;20385;-80
2023/09/13 05:54:15;;;;;;;5.73;4.10;;;;;;;;;;5015317;28;20395;-80
2023/09/13 05:56:42;;;;;;;5.72;3.85;;;;;;;;;;5013754;28;20404;-80
2023/09/13 05:59:08;;;;;;;4.18;3.78;;;;;;;;;;5015026;28;20431;-80
2023/09/13 06:01:35;;;;;;;4.30;4.00;;;;;;;;;;5028613;28;20398;-80
2023/09/13 06:04:01;;;;;;;4.47;4.07;;;;;;;;;;5014965;28;20726;-80
2023/09/13 06:06:29;;;;;;;5.15;4.03;;;;;;;;;;5015066;28;20460;-80
2023/09/13 06:08:55;;;;;;;4.70;4.10;;;;;;;;;;5014251;28;20421;-80
2023/09/13 06:11:21;;;;;;;4.53;4.15;;;;;;;;;;5014486;28;20400;-79
2023/09/13 06:13:47;;;;;;;6.10;4.88;;;;;;;;;;5012762;28;20858;-80
2023/09/13 06:16:13;;;;;;;4.73;4.33;;;;;;;;;;5013832;28;20393;-80
2023/09/13 06:18:39;;;;;;;4.95;4.53;;;;;;;;;;5014386;28;20961;-80
2023/09/13 06:21:05;;;;;;;4.97;4.50;;;;;;;;;;5012728;28;20432;-80
2023/09/13 06:23:35;;;;;;;4.57;4.18;;;;;;;;;;5012607;28;20392;-80
2023/09/13 06:26:02;;;;;;;4.75;4.35;;;;;;;;;;5013830;28;20479;-80
2023/09/13 06:28:28;;;;;;;4.10;3.80;;;;;;;;;;5014136;28;20387;-80
2023/09/13 06:30:54;;;;;;;5.28;4.78;;;;;;;;;;5014060;28;20475;-80
2023/09/13 06:33:20;;;;;;;4.53;4.20;;;;;;;;;;5014035;28;20468;-80
2023/09/13 06:35:46;;;;;;;4.70;4.30;;;;;;;;;;5015566;28;20711;-81
2023/09/13 06:38:13;;;;;;;4.55;4.13;;;;;;;;;;5013242;28;20932;-80
2023/09/13 06:40:42;;;;;;;4.15;3.75;;;;;;;;;;5013613;28;20834;-80
2023/09/13 06:43:09;;;;;;;4.35;3.95;;;;;;;;;;5012737;28;20783;-80
2023/09/13 06:45:35;;;;;;;4.53;4.13;;;;;;;;;;5013070;28;20462;-80
2023/09/13 06:48:01;;;;;;;4.30;3.90;;;;;;;;;;5013803;28;20870;-80
2023/09/13 06:50:27;;;;;;;4.68;4.25;;;;;;;;;;5014900;28;20381;-80
2023/09/13 06:52:53;;;;;;;4.45;4.05;;;;;;;;;;5013427;28;20885;-80
2023/09/13 06:55:19;;;;;;;4.47;4.07;;;;;;;;;;5013769;28;20428;-78
2023/09/13 06:57:48;;;;;;;4.63;4.30;;;;;;;;;;5013599;28;20385;-80
2023/09/13 07:00:14;;;;;;;4.93;4.50;;;;;;;;;;5014800;28;20416;-80
2023/09/13 07:02:40;;;;;;;4.50;4.10;;;;;;;;;;5014097;28;20479;-79
2023/09/13 07:05:06;;;;;;;4.40;4.00;;;;;;;;;;5015151;28;20421;-79
2023/09/13 07:07:32;;;;;;;5.60;4.70;;;;;;;;;;5011198;28;20385;-80
2023/09/13 07:09:58;;;;;;;5.45;4.95;;;;;;;;;;5012903;28;20384;-80
2023/09/13 07:12:25;;;;;;;4.93;4.63;;;;;;;;;;5010743;28;20488;-81
2023/09/13 07:14:51;;;;;;;4.72;4.32;;;;;;;;;;5014228;28;20881;-82
2023/09/13 07:17:18;;;;;;;5.68;5.28;;;;;;;;;;5016287;28;20419;-81
2023/09/13 07:19:45;;;;;;;6.75;5.72;;;;;;;;;;5018534;28;20409;-82
2023/09/13 07:22:11;;;;;;;6.47;5.90;;;;;;;;;;5031368;28;20473;-81
2023/09/13 07:24:37;;;;;;;6.43;5.93;;;;;;;;;;5017669;28;20397;-82
2023/09/13 07:27:03;;;;;;;4.82;4.47;;;;;;;;;;5030581;28;20466;-82
2023/09/13 07:29:29;;;;;;;5.38;4.88;;;;;;;;;;5017692;28;20425;-82
2023/09/13 07:31:55;;;;;;;6.13;5.53;;;;;;;;;;5017637;28;20392;-82
2023/09/13 07:34:21;;;;;;;6.05;5.55;;;;;;;;;;5018605;28;20400;-82
2023/09/13 07:36:47;;;;;;;4.75;4.43;;;;;;;;;;5020723;28;20380;-82
2023/09/13 07:39:13;;;;;;;5.43;4.97;;;;;;;;;;5022047;28;20384;-82
2023/09/13 07:41:39;;;;;;;4.80;4.40;;;;;;;;;;5020670;28;20424;-82
2023/09/13 07:44:05;;;;;;;4.60;4.20;;;;;;;;;;5021438;28;20407;-82
2023/09/13 07:46:31;;;;;;;5.25;4.82;;;;;;;;;;5021747;28;20389;-82
2023/09/13 07:48:57;;;;;;;5.68;5.28;;;;;;;;;;5021476;28;20464;-82
2023/09/13 07:51:23;;;;;;;5.40;4.90;;;;;;;;;;5023750;28;20417;-82
2023/09/13 07:53:49;;;;;;;5.47;4.80;;;;;;;;;;5020759;28;20416;-82
2023/09/13 07:56:15;;;;;;;5.05;4.70;;;;;;;;;;5021176;28;20435;-82
2023/09/13 07:58:41;;;;;;;4.40;4.10;;;;;;;;;;5021822;28;20380;-82
2023/09/13 08:01:07;;;;;;;4.93;4.53;;;;;;;;;;5020526;28;20420;-82
2023/09/13 08:03:33;;;;;;;4.78;4.45;;;;;;;;;;5022303;28;20413;-82
2023/09/13 08:06:03;;;;;;;4.57;4.28;;;;;;;;;;5020444;28;20866;-82
2023/09/13 08:08:30;;;;;;;5.05;4.65;;;;;;;;;;5020064;28;20399;-82
2023/09/13 08:10:56;;;;;;;5.63;5.15;;;;;;;;;;5020593;28;20385;-82
2023/09/13 08:13:22;;;;;;;5.75;5.22;;;;;;;;;;5021345;28;20388;-82
2023/09/13 08:15:49;;;;;;;4.90;4.50;;;;;;;;;;5020680;28;20407;-82
2023/09/13 08:18:15;;;;;;;4.50;4.10;;;;;;;;;;5019690;28;20396;-82
2023/09/13 08:20:42;;;;;;;6.30;5.70;;;;;;;;;;5021337;28;20504;-82
2023/09/13 08:23:08;;;;;;;5.40;5.00;;;;;;;;;;5019736;28;20400;-82
2023/09/13 08:25:34;;;;;;;5.20;4.80;;;;;;;;;;5021416;28;20393;-82
2023/09/13 08:28:00;;;;;;;4.97;4.60;;;;;;;;;;5020263;28;20412;-82
2023/09/13 08:30:26;;;;;;;5.30;4.90;;;;;;;;;;5020517;28;20393;-82
2023/09/13 08:32:52;;;;;;;4.60;4.28;;;;;;;;;;5020279;28;20771;-82
2023/09/13 08:35:18;;;;;;;4.88;4.07;;;;;;;;;;5020081;28;20378;-82
2023/09/13 08:37:44;;;;;;;4.70;4.30;;;;;;;;;;5020335;28;20416;-82
2023/09/13 08:40:11;;;;;;;5.22;4.35;;;;;;;;;;5018921;28;20480;-82
2023/09/13 08:42:37;;;;;;;4.60;4.30;;;;;;;;;;5020789;28;20797;-82
2023/09/13 08:45:03;;;;;;;4.22;3.92;;;;;;;;;;5016792;28;20389;-80
2023/09/13 08:47:31;;;;;;;5.35;4.53;;;;;;;;;;5015682;28;20397;-83
2023/09/13 08:49:59;;;;;;;4.28;3.97;;;;;;;;;;5016567;28;20416;-83
2023/09/13 08:52:25;;;;;;;4.82;4.45;;;;;;;;;;5018273;28;20442;-83
2023/09/13 08:54:53;;;;;;;7.32;5.00;;;;;;;;;;5016558;28;20392;-80
2023/09/13 08:57:20;;;;;;;4.85;4.45;;;;;;;;;;5016133;28;20408;-83
2023/09/13 08:59:46;;;;;;;4.95;4.55;;;;;;;;;;5016733;28;20409;-80
2023/09/13 09:02:15;;;;;;;5.43;5.00;;;;;;;;;;5024893;28;20407;-82
2023/09/13 09:04:41;;;;;;;4.57;4.18;;;;;;;;;;5015866;28;20381;-83
2023/09/13 09:07:07;;;;;;;5.38;4.97;;;;;;;;;;5017083;28;20407;-83
2023/09/13 09:09:34;;;;;;;5.65;5.20;;;;;;;;;;5016251;28;20396;-83
2023/09/13 09:12:01;;;;;;;5.57;5.00;;;;;;;;;;5015124;28;20385;-82
2023/09/13 09:14:33;;;;;;;5.72;5.32;;;;;;;;;;5015666;28;20407;-83
2023/09/13 09:17:00;;;;;;;5.95;5.45;;;;;;;;;;5017560;28;20792;-83
2023/09/13 09:19:26;;;;;;;5.40;4.90;;;;;;;;;;5016091;28;20381;-83
2023/09/13 09:21:52;;;;;;;5.93;5.43;;;;;;;;;;5017862;28;20393;-81
2023/09/13 09:24:18;;;;;;;5.63;5.20;;;;;;;;;;5017695;28;20425;-81
2023/09/13 09:26:45;;;;;;;6.20;5.43;;;;;;;;;;5021058;28;20861;-81
2023/09/13 09:29:15;;;;;;;5.47;5.07;;;;;;;;;;5021597;28;20388;-81
2023/09/13 09:31:41;;;;;;;5.35;4.85;;;;;;;;;;5022142;28;20389;-81
2023/09/13 09:34:09;;;;;;;5.60;4.50;;;;;;;;;;5022987;28;20457;-81
2023/09/13 09:36:42;;;;;;;4.93;4.53;;;;;;;;;;5021213;28;20762;-81
2023/09/13 09:39:08;;;;;;;4.90;4.60;;;;;;;;;;5021082;28;20464;-81
2023/09/13 09:41:38;;;;;;;4.90;4.50;;;;;;;;;;5021641;28;20388;-81
2023/09/13 09:44:05;;;;;;;5.22;4.90;;;;;;;;;;5022331;28;20385;-81
2023/09/13 09:46:31;;;;;;;5.43;5.03;;;;;;;;;;5021670;28;20400;-81
2023/09/13 09:48:59;;;;;;;6.23;5.63;;;;;;;;;;5021753;28;20393;-79
2023/09/13 09:51:25;;;;;;;5.28;4.88;;;;;;;;;;5021102;28;20401;-79
2023/09/13 09:53:51;;;;;;;5.47;4.97;;;;;;;;;;5003514;28;20397;-79
2023/09/13 09:56:17;;;;;;;5.80;5.40;;;;;;;;;;5011181;28;20396;-78
2023/09/13 09:58:43;;;;;;;5.30;4.90;;;;;;;;;;5007339;28;20437;-79
2023/09/13 10:01:16;;;;;;;5.60;5.20;;;;;;;;;;5014946;28;20534;-80
2023/09/13 10:03:43;;;;;;;5.25;4.85;;;;;;;;;;5015016;28;20511;-78
2023/09/13 10:06:13;;;;;;;5.60;5.15;;;;;;;;;;5024399;28;20380;-79
2023/09/13 10:08:43;;;;;;;5.70;5.22;;;;;;;;;;5015018;28;20384;-78
2023/09/13 10:11:13;;;;;;;5.65;5.22;;;;;;;;;;5010862;28;20435;-79
2023/09/13 10:13:40;;;;;;;5.25;4.85;;;;;;;;;;5023607;28;20379;-79
2023/09/13 10:16:07;;;;;;;4.80;4.40;;;;;;;;;;5025517;28;20385;-78
2023/09/13 10:18:37;;;;;;;5.43;5.03;;;;;;;;;;5015264;28;20423;-78
2023/09/13 10:21:04;;;;;;;4.77;4.37;;;;;;;;;;5014957;28;20458;-78
2023/09/13 10:23:35;;;;;;;4.30;3.90;;;;;;;;;;5014498;28;20400;-79
2023/09/13 10:26:02;;;;;;;4.70;4.40;;;;;;;;;;5015018;28;20395;-78
2023/09/13 10:28:29;;;;;;;5.27;4.60;;;;;;;;;;5013425;28;20477;-78
2023/09/13 10:30:59;;;;;;;5.07;4.68;;;;;;;;;;5016404;28;20411;-79
2023/09/13 10:33:28;;;;;;;5.25;4.95;;;;;;;;;;4998451;28;20472;-79
2023/09/13 10:35:58;;;;;;;3.92;3.55;;;;;;;;;;5022209;28;20737;-81
2023/09/13 10:38:28;;;;;;;3.70;3.40;;;;;;;;;;5020959;28;20396;-79
2023/09/13 10:41:02;;;;;;;3.87;3.57;;;;;;;;;;5010764;28;20503;-79
2023/09/13 10:43:29;;;;;;;3.47;3.28;;;;;;;;;;5028823;28;20394;-79
2023/09/13 10:45:56;;;;;;;3.60;3.30;;;;;;;;;;5011477;28;20386;-79
2023/09/13 10:48:22;;;;;;;4.28;3.88;;;;;;;;;;5014380;28;20412;-80
2023/09/13 10:50:50;;;;;;;4.60;4.03;;;;;;;;;;5016959;28;20381;-80
2023/09/13 10:53:16;;;;;;;4.05;3.65;;;;;;;;;;5023847;28;20448;-80
2023/09/13 10:55:43;;;;;;;3.22;3.00;;;;;;;;;;5015663;28;20389;-79
2023/09/13 10:58:10;;;;;;;2.88;2.67;;;;;;;;;;5015213;28;20775;-79
2023/09/13 11:00:37;;;;;;;3.40;3.10;;;;;;;;;;5018661;28;20466;-80
2023/09/13 11:03:04;;;;;;;3.77;3.47;;;;;;;;;;5014739;28;20435;-79
2023/09/13 11:05:33;;;;;;;4.50;4.00;;;;;;;;;;5014929;28;20400;-79
2023/09/13 11:07:59;;;;;;;4.40;4.00;;;;;;;;;;5017582;28;20462;-79
2023/09/13 11:10:30;;;;;;;3.93;3.63;;;;;;;;;;5035378;28;20846;-79
2023/09/13 11:13:10;;;;;;;4.75;3.88;;;;;;;;;;5017274;28;20392;-79
2023/09/13 11:15:47;;;;;;;4.95;4.45;;;;;;;;;;5017908;28;20392;-79
2023/09/13 11:18:16;;;;;;;6.17;5.33;;;;;;;;;;5018428;28;20404;-80
2023/09/13 11:20:42;;;;;;;4.93;4.53;;;;;;;;;;5017275;28;20412;-79
2023/09/13 11:23:18;;;;;;;3.70;3.30;;;;;;;;;;5017876;28;20413;-80
2023/09/13 11:25:52;;;;;;;7.25;5.88;;;;;;;;;;5017432;28;20778;-79
2023/09/13 11:28:45;;;;;;;4.40;3.25;;;;;;;;;;5018148;28;20442;-80
2023/09/13 11:31:14;;;;;;;4.85;3.92;;;;;;;;;;5011098;28;20480;-80
2023/09/13 11:33:54;;;;;;;12.00;9.32;;;;;;;;;;5017921;28;20460;-80
2023/09/13 11:36:20;;;;;;;9.57;7.40;;;;;;;;;;5016623;28;20416;-80
2023/09/13 11:38:50;;;;;;;4.15;3.47;;;;;;;;;;5023281;28;20375;-80
2023/09/13 11:41:17;;;;;;;3.93;3.57;;;;;;;;;;5022876;28;20411;-80
2023/09/13 11:43:43;;;;;;;3.00;2.72;;;;;;;;;;5018932;28;20434;-80
2023/09/13 11:46:10;;;;;;;2.70;2.13;;;;;;;;;;5021785;28;20406;-80
2023/09/13 11:48:42;;;;;;;2.60;2.08;;;;;;;;;;5017832;28;20408;-80
2023/09/13 11:51:11;;;;;;;2.63;2.27;;;;;;;;;;5017307;28;20381;-80
2023/09/13 11:53:37;;;;;;;2.30;2.00;;;;;;;;;;5017097;28;20380;-80
2023/09/13 11:56:03;;;;;;;1.98;1.83;;;;;;;;;;5017283;28;20397;-80
2023/09/13 11:58:31;;;;;;;2.30;1.77;;;;;;;;;;5017453;28;20385;-80
2023/09/13 12:00:58;;;;;;;2.00;1.80;;;;;;;;;;5017143;28;20420;-81
2023/09/13 12:03:24;;;;;;;2.00;1.80;;;;;;;;;;5017322;28;20396;-80
2023/09/13 12:05:50;;;;;;;2.25;1.92;;;;;;;;;;5017516;28;20389;-80
2023/09/13 12:08:21;;;;;;;1.90;1.80;;;;;;;;;;5017324;28;20850;-80
2023/09/13 12:10:47;;;;;;;1.90;1.80;;;;;;;;;;5016983;28;20385;-80
2023/09/13 12:13:13;;;;;;;1.88;1.70;;;;;;;;;;5017254;28;20396;-80
2023/09/13 12:15:57;;;;;;;1.80;1.70;;;;;;;;;;5017280;28;20452;-81
2023/09/13 12:18:24;;;;;;;2.10;1.70;;;;;;;;;;5016859;28;20910;-80
2023/09/13 12:20:50;;;;;;;2.00;1.60;;;;;;;;;;5016491;28;20420;-80
2023/09/13 12:23:19;;;;;;;2.40;1.80;;;;;;;;;;5016606;28;20388;-80
2023/09/13 12:25:46;;;;;;;1.90;1.42;;;;;;;;;;5017547;28;20422;-80
2023/09/13 12:28:12;;;;;;;2.20;1.50;;;;;;;;;;5017202;28;20391;-80
2023/09/13 12:30:38;;;;;;;2.97;2.00;;;;;;;;;;5017312;28;20480;-79
2023/09/13 12:33:04;;;;;;;1.90;1.80;;;;;;;;;;5016834;28;20389;-79
2023/09/13 12:35:31;;;;;;;2.85;1.55;;;;;;;;;;5016828;28;20830;-79
2023/09/13 12:37:58;;;;;;;2.53;1.63;;;;;;;;;;5017275;28;20392;-81
2023/09/13 12:40:27;;;;;;;1.48;1.10;;;;;;;;;;5016849;28;20425;-80
2023/09/13 12:42:55;;;;;;;2.63;1.27;;;;;;;;;;5016772;28;20389;-80
2023/09/13 12:45:24;;;;;;;1.23;0.90;;;;;;;;;;5017449;28;20384;-79
2023/09/13 12:47:50;;;;;;;1.15;0.80;;;;;;;;;;5016895;28;20475;-80
2023/09/13 12:50:16;;;;;;;1.30;0.90;;;;;;;;;;5016572;28;20471;-79
2023/09/13 12:52:42;;;;;;;1.90;1.10;;;;;;;;;;5026661;28;20396;-79
2023/09/13 12:55:09;;;;;;;1.30;1.15;;;;;;;;;;5016146;28;20440;-79
2023/09/13 12:57:35;;;;;;;1.05;0.95;;;;;;;;;;5029016;28;20389;-79
2023/09/13 13:00:02;;;;;;;1.17;1.08;;;;;;;;;;5016785;28;20417;-78
2023/09/13 13:02:28;;;;;;;1.52;0.88;;;;;;;;;;5015489;28;20454;-79
2023/09/13 13:04:54;;;;;;;1.40;1.27;;;;;;;;;;5015718;28;20862;-81
2023/09/13 13:07:21;;;;;;;1.85;1.30;;;;;;;;;;5015328;28;20393;-81
2023/09/13 13:10:01;;;;;;;1.50;1.30;;;;;;;;;;5016251;28;20416;-80
2023/09/13 13:12:27;;;;;;;1.52;1.35;;;;;;;;;;5016110;28;20801;-80
2023/09/13 13:14:54;;;;;;;1.85;1.50;;;;;;;;;;5026280;28;20492;-80
2023/09/13 13:17:21;;;;;;;2.55;1.48;;;;;;;;;;5015877;28;20388;-79
2023/09/13 13:19:48;;;;;;;2.03;1.52;;;;;;;;;;5016432;28;20444;-79
2023/09/13 13:22:17;;;;;;;2.05;1.50;;;;;;;;;;5018247;28;20388;-78
2023/09/13 13:24:43;;;;;;;2.47;1.50;;;;;;;;;;5015679;28;20396;-80
2023/09/13 13:27:09;;;;;;;2.72;2.47;;;;;;;;;;5015653;28;20424;-81
2023/09/13 13:29:35;;;;;;;2.05;1.70;;;;;;;;;;5015166;28;20385;-80
2023/09/13 13:32:02;;;;;;;1.98;1.70;;;;;;;;;;5008801;28;20814;-80
2023/09/13 13:34:28;;;;;;;2.88;1.77;;;;;;;;;;5015808;28;20385;-81
2023/09/13 13:36:54;;;;;;;3.78;1.67;;;;;;;;;;5015205;28;20412;-81
2023/09/13 13:39:20;;;;;;;1.88;1.60;;;;;;;;;;5015030;28;20878;-80
2023/09/13 13:41:46;;;;;;;1.67;1.50;;;;;;;;;;5015355;28;20393;-81
2023/09/13 13:44:15;;;;;;;5.07;1.80;;;;;;;;;;5015569;28;20743;-80
2023/09/13 13:46:41;;;;;;;1.93;1.37;;;;;;;;;;5018681;28;20428;-81
2023/09/13 13:49:07;;;;;;;1.30;1.20;;;;;;;;;;5016332;28;20393;-80
2023/09/13 13:51:33;;;;;;;1.73;1.40;;;;;;;;;;5015705;28;20854;-81
2023/09/13 13:54:00;;;;;;;1.95;1.50;;;;;;;;;;5015854;28;20496;-80
2023/09/13 13:56:26;;;;;;;1.90;1.45;;;;;;;;;;5014013;28;20384;-80
2023/09/13 13:58:53;;;;;;;2.25;1.40;;;;;;;;;;5015309;28;20404;-81
2023/09/13 14:01:19;;;;;;;1.92;1.60;;;;;;;;;;5015271;28;20479;-81
2023/09/13 14:03:45;;;;;;;1.65;1.55;;;;;;;;;;5015424;28;20384;-79
2023/09/13 14:06:11;;;;;;;2.20;2.00;;;;;;;;;;5014501;28;20472;-80
2023/09/13 14:08:37;;;;;;;2.42;1.73;;;;;;;;;;5014735;28;20403;-80
2023/09/13 14:11:03;;;;;;;2.40;1.95;;;;;;;;;;5014703;28;20858;-80
2023/09/13 14:13:30;;;;;;;2.30;1.90;;;;;;;;;;5014559;28;20396;-80
2023/09/13 14:15:57;;;;;;;2.30;2.10;;;;;;;;;;5014504;28;20479;-80
2023/09/13 14:18:23;;;;;;;2.22;2.03;;;;;;;;;;5014864;28;20397;-79
2023/09/13 14:20:49;;;;;;;3.40;2.40;;;;;;;;;;5014098;28;20854;-77
2023/09/13 14:23:15;;;;;;;3.40;2.67;;;;;;;;;;5012784;28;20499;-78
2023/09/13 14:25:42;;;;;;;2.70;2.50;;;;;;;;;;5013857;28;20400;-78
2023/09/13 14:28:09;;;;;;;3.65;2.60;;;;;;;;;;5013958;28;20791;-78
2023/09/13 14:30:35;;;;;;;3.88;2.83;;;;;;;;;;5014462;28;20389;-78
2023/09/13 14:33:04;;;;;;;2.75;2.35;;;;;;;;;;5013124;28;20396;-76
2023/09/13 14:35:29;;;;;;;4.25;2.75;;;;;;;;;;5012988;28;20397;-78
2023/09/13 14:37:56;;;;;;;2.53;2.33;;;;;;;;;;5012457;28;20487;-77
2023/09/13 14:40:22;;;;;;;3.70;2.80;;;;;;;;;;5012637;28;20424;-79
2023/09/13 14:42:49;;;;;;;3.90;2.80;;;;;;;;;;5015235;28;20857;-78